createdAt,value
2022-11-26T00:01:21.387Z,108.47
2022-11-26T00:05:24.129Z,110.05
2022-11-26T00:09:26.100Z,153.77
2022-11-26T00:13:30.430Z,112.13
2022-11-26T00:17:32.299Z,115.70
2022-11-26T00:21:38.189Z,118.68
2022-11-26T00:25:44.129Z,107.22
2022-11-26T00:29:46.128Z,129.13
2022-11-26T00:33:48.210Z,105.53
2022-11-26T00:37:58.867Z,105.60
2022-11-26T00:42:00.719Z,140.63
2022-11-26T00:46:02.828Z,109.35
2022-11-26T00:50:05.313Z,122.13
2022-11-26T00:54:12.217Z,122.05
2022-11-26T00:58:23.875Z,130.93
2022-11-26T01:02:25.953Z,138.43
2022-11-26T01:06:32.618Z,100.05
2022-11-26T01:10:34.692Z,106.10
2022-11-26T01:14:36.675Z,117.15
2022-11-26T01:18:38.965Z,116.03
2022-11-26T01:22:40.731Z,129.93
2022-11-26T01:26:44.624Z,110.05
2022-11-26T01:30:46.804Z,115.82
2022-11-26T01:34:48.797Z,115.10
2022-11-26T01:38:52.730Z,106.57
2022-11-26T01:43:11.028Z,118.30
2022-11-26T01:47:29.169Z,110.53
2022-11-26T01:51:31.175Z,127.88
2022-11-26T01:55:43.597Z,100.25
2022-11-26T01:59:59.246Z,126.25
2022-11-26T02:04:20.396Z,103.22
2022-11-26T02:08:24.960Z,110.88
2022-11-26T02:12:27.198Z,103.18
2022-11-26T02:17:10.860Z,106.50
2022-11-26T02:21:23.887Z,95.53
2022-11-26T02:25:41.116Z,110.20
2022-11-26T02:30:00.379Z,108.60
2022-11-26T02:34:18.651Z,108.47
2022-11-26T02:38:26.341Z,104.55
2022-11-26T02:42:31.486Z,97.75
2022-11-26T02:46:33.348Z,99.03
2022-11-26T02:50:40.737Z,101.80
2022-11-26T02:54:45.069Z,111.57
2022-11-26T02:58:49.396Z,103.03
2022-11-26T03:03:00.333Z,110.15
2022-11-26T03:07:05.453Z,107.18
2022-11-26T03:11:07.264Z,99.20
2022-11-26T03:15:09.662Z,115.30
2022-11-26T03:19:11.712Z,127.75
2022-11-26T03:23:13.704Z,111.07
2022-11-26T03:27:15.609Z,98.32
2022-11-26T03:31:17.547Z,116.78
2022-11-26T03:35:19.331Z,96.25
2022-11-26T03:39:21.554Z,112.63
2022-11-26T03:43:23.540Z,108.65
2022-11-26T03:47:25.449Z,112.63
2022-11-26T03:51:27.280Z,97.90
2022-11-26T03:55:29.141Z,95.53
2022-11-26T03:59:30.834Z,103.43
2022-11-26T04:03:32.949Z,104.10
2022-11-26T04:07:34.657Z,113.47
2022-11-26T04:11:36.777Z,91.97
2022-11-26T04:15:38.683Z,122.00
2022-11-26T04:19:40.728Z,107.95
2022-11-26T04:23:42.317Z,96.45
2022-11-26T04:27:44.242Z,94.30
2022-11-26T04:31:45.965Z,82.82
2022-11-26T04:35:47.982Z,125.75
2022-11-26T04:39:49.751Z,109.35
2022-11-26T04:43:51.664Z,86.75
2022-11-26T04:47:53.799Z,85.13
2022-11-26T04:51:55.851Z,98.07
2022-11-26T04:55:57.516Z,81.50
2022-11-26T04:59:59.366Z,113.47
2022-11-26T05:04:01.026Z,95.20
2022-11-26T05:08:03.074Z,86.10
2022-11-26T05:12:05.046Z,81.70
2022-11-26T05:16:07.369Z,85.55
2022-11-26T05:20:09.945Z,79.28
2022-11-26T05:24:11.862Z,80.25
2022-11-26T05:28:14.061Z,98.57
2022-11-26T05:32:16.164Z,80.00
2022-11-26T05:36:17.814Z,81.00
2022-11-26T05:40:19.863Z,90.35
2022-11-26T05:44:21.549Z,92.43
2022-11-26T05:48:23.392Z,83.10
2022-11-26T05:52:25.162Z,83.43
2022-11-26T05:56:27.038Z,89.82
2022-11-26T06:00:29.608Z,80.60
2022-11-26T06:04:32.746Z,67.75
2022-11-26T06:08:34.657Z,64.13
2022-11-26T06:12:36.694Z,71.07
2022-11-26T06:16:38.461Z,67.95
2022-11-26T06:20:40.535Z,76.28
2022-11-26T06:24:42.245Z,71.28
2022-11-26T06:28:44.573Z,72.55
2022-11-26T06:32:46.264Z,69.75
2022-11-26T06:36:48.153Z,63.88
2022-11-26T06:40:57.984Z,64.63
2022-11-26T06:45:00.289Z,66.45
2022-11-26T06:49:03.001Z,63.00
2022-11-26T06:53:04.996Z,68.72
2022-11-26T06:57:06.768Z,59.90
2022-11-26T07:01:18.279Z,59.20
2022-11-26T07:05:20.069Z,57.22
2022-11-26T07:09:21.989Z,55.30
2022-11-26T07:13:23.756Z,53.38
2022-11-26T07:17:28.237Z,53.47
2022-11-26T07:21:30.778Z,45.47
2022-11-26T07:25:32.699Z,48.45
2022-11-26T07:29:34.444Z,48.00
2022-11-26T07:33:36.695Z,50.60
2022-11-26T07:37:38.411Z,46.92
2022-11-26T07:41:40.416Z,47.58
2022-11-26T07:45:42.165Z,43.58
2022-11-26T07:49:44.130Z,48.47
2022-11-26T07:53:46.561Z,46.58
2022-11-26T07:57:48.458Z,50.53
2022-11-26T08:01:50.616Z,52.17
2022-11-26T08:05:52.560Z,59.65
2022-11-26T08:09:54.552Z,49.53
2022-11-26T08:13:59.873Z,53.67
2022-11-26T08:18:01.866Z,48.65
2022-11-26T08:22:03.740Z,48.85
2022-11-26T08:26:32.682Z,49.40
2022-11-26T08:30:30.936Z,49.70
2022-11-26T08:34:33.697Z,48.03
2022-11-26T08:38:35.675Z,47.30
2022-11-26T08:42:37.757Z,40.88
2022-11-26T08:46:41.338Z,45.95
2022-11-26T08:50:43.352Z,44.17
2022-11-26T08:54:45.681Z,44.38
2022-11-26T08:58:49.073Z,44.33
2022-11-26T09:02:50.886Z,40.88
2022-11-26T09:06:52.915Z,42.13
2022-11-26T09:10:55.989Z,49.83
2022-11-26T09:14:57.721Z,47.97
2022-11-26T09:19:01.202Z,42.50
2022-11-26T09:23:02.976Z,48.10
2022-11-26T09:27:08.026Z,46.53
2022-11-26T09:31:10.077Z,45.90
2022-11-26T09:35:12.013Z,50.17
2022-11-26T09:39:14.366Z,43.30
2022-11-26T09:43:32.387Z,42.72
2022-11-26T09:47:41.676Z,38.80
2022-11-26T09:51:46.739Z,36.70
2022-11-26T09:55:51.820Z,37.83
2022-11-26T09:59:56.054Z,35.30
2022-11-26T10:03:58.907Z,35.97
2022-11-26T10:08:32.993Z,36.22
2022-11-26T10:13:03.530Z,35.75
2022-11-26T10:17:28.323Z,40.05
2022-11-26T10:22:03.552Z,39.22
2022-11-26T10:26:28.830Z,39.35
2022-11-26T10:30:30.832Z,38.65
2022-11-26T10:34:41.741Z,38.15
2022-11-26T10:38:43.613Z,37.95
2022-11-26T10:43:12.715Z,40.67
2022-11-26T10:51:33.455Z,41.83
2022-11-26T10:55:41.270Z,44.25
2022-11-26T10:59:51.288Z,42.50
2022-11-26T11:04:13.864Z,42.22
2022-11-26T11:08:32.002Z,41.72
2022-11-26T11:12:38.973Z,42.03
2022-11-26T11:16:46.038Z,41.08
2022-11-26T11:20:54.811Z,41.83
2022-11-26T11:24:59.171Z,42.97
2022-11-26T11:29:01.124Z,40.45
2022-11-26T11:33:23.270Z,40.00
2022-11-26T11:37:25.309Z,40.78
2022-11-26T11:41:33.050Z,42.63
2022-11-26T11:45:47.352Z,43.78
2022-11-26T11:50:18.260Z,44.88
2022-11-26T11:54:40.355Z,39.13
2022-11-26T11:58:56.079Z,43.22
2022-11-26T12:03:10.782Z,44.03
2022-11-26T12:07:38.746Z,39.65
2022-11-26T12:11:56.691Z,40.13
2022-11-26T12:16:05.665Z,42.85
2022-11-26T12:20:19.844Z,43.28
2022-11-26T12:24:45.842Z,42.05
2022-11-26T12:29:18.141Z,41.95
2022-11-26T12:33:27.072Z,41.67
2022-11-26T12:37:32.105Z,41.17
2022-11-26T12:41:42.587Z,41.83
2022-11-26T12:45:56.642Z,42.40
2022-11-26T12:50:23.959Z,55.22
2022-11-26T12:54:33.597Z,44.83
2022-11-26T12:59:12.467Z,43.58
2022-11-26T13:03:18.381Z,46.22
2022-11-26T13:07:41.838Z,41.78
2022-11-26T13:12:15.084Z,40.70
2022-11-26T13:16:19.381Z,38.72
2022-11-26T13:20:36.825Z,45.65
2022-11-26T13:25:27.565Z,44.45
2022-11-26T13:29:57.572Z,42.92
2022-11-26T13:34:11.202Z,39.28
2022-11-26T13:38:19.240Z,42.92
2022-11-26T13:42:31.952Z,44.40
2022-11-26T13:46:55.899Z,45.95
2022-11-26T13:51:09.151Z,39.78
2022-11-26T13:55:19.041Z,40.28
2022-11-26T13:59:28.373Z,42.50
2022-11-26T14:03:48.730Z,41.47
2022-11-26T14:07:50.575Z,43.55
2022-11-26T14:11:57.339Z,45.50
2022-11-26T14:16:04.499Z,41.58
2022-11-26T14:20:07.412Z,43.97
2022-11-26T14:24:09.111Z,41.83
2022-11-26T14:28:11.231Z,42.83
2022-11-26T14:32:22.418Z,43.05
2022-11-26T14:36:29.466Z,41.40
2022-11-26T14:40:34.311Z,44.25
2022-11-26T14:44:36.433Z,44.63
2022-11-26T14:48:44.550Z,47.67
2022-11-26T14:56:49.183Z,44.22
2022-11-26T15:01:23.901Z,47.70
2022-11-26T15:05:28.976Z,45.05
2022-11-26T15:09:30.649Z,41.53
2022-11-26T15:13:39.565Z,40.67
2022-11-26T15:17:46.367Z,41.30
2022-11-26T15:21:48.446Z,44.92
2022-11-26T15:25:51.525Z,46.63
2022-11-26T15:29:53.461Z,46.83
2022-11-26T15:33:55.323Z,47.33
2022-11-26T15:37:57.747Z,48.53
2022-11-26T15:42:07.791Z,47.42
2022-11-26T15:46:16.466Z,42.67
2022-11-26T15:50:24.480Z,45.80
2022-11-26T15:54:49.783Z,46.80
2022-11-26T15:58:57.391Z,44.20
2022-11-26T16:02:59.704Z,46.60
2022-11-26T16:07:29.183Z,43.42
2022-11-26T16:11:36.539Z,46.42
2022-11-26T16:15:48.230Z,46.92
2022-11-26T16:19:56.435Z,50.55
2022-11-26T16:24:06.905Z,45.03
2022-11-26T16:28:11.797Z,48.28
2022-11-26T16:32:15.731Z,52.60
2022-11-26T16:36:19.085Z,49.90
2022-11-26T16:40:21.489Z,48.53
2022-11-26T16:44:23.402Z,48.53
2022-11-26T16:48:27.333Z,43.95
2022-11-26T16:52:29.431Z,44.25
2022-11-26T16:56:39.735Z,42.22
2022-11-26T17:00:41.712Z,41.45
2022-11-26T17:04:43.706Z,42.42
2022-11-26T17:08:49.700Z,39.35
2022-11-26T17:13:08.168Z,39.67
2022-11-26T17:17:12.655Z,40.38
2022-11-26T17:21:14.892Z,38.60
2022-11-26T17:25:16.588Z,39.95
2022-11-26T17:29:18.528Z,40.88
2022-11-26T17:33:20.286Z,39.85
2022-11-26T17:37:28.377Z,37.13
2022-11-26T17:41:30.067Z,37.83
2022-11-26T17:45:32.072Z,34.63
2022-11-26T17:49:33.745Z,31.85
2022-11-26T17:53:35.802Z,34.63
2022-11-26T17:57:37.454Z,35.20
2022-11-26T18:01:39.517Z,35.08
2022-11-26T18:05:42.411Z,35.60
2022-11-26T18:09:44.743Z,43.00
2022-11-26T18:13:46.360Z,42.75
2022-11-26T18:17:50.912Z,39.53
2022-11-26T18:21:52.918Z,41.05
2022-11-26T18:25:54.862Z,39.70
2022-11-26T18:29:56.740Z,34.85
2022-11-26T18:33:59.376Z,32.97
2022-11-26T18:38:00.987Z,34.47
2022-11-26T18:42:35.476Z,33.95
2022-11-26T18:46:25.586Z,31.95
2022-11-26T18:50:27.565Z,29.85
2022-11-26T18:54:29.265Z,27.90
2022-11-26T18:58:31.186Z,29.45
2022-11-26T19:02:35.813Z,29.73
2022-11-26T19:06:39.312Z,35.17
2022-11-26T19:10:41.423Z,34.95
2022-11-26T19:14:43.823Z,33.55
2022-11-26T19:18:46.619Z,33.08
2022-11-26T19:22:48.704Z,30.15
2022-11-26T19:26:50.378Z,31.23
2022-11-26T19:31:08.113Z,29.85
2022-11-26T19:35:10.740Z,30.70
2022-11-26T19:39:12.695Z,30.00
2022-11-26T19:43:14.420Z,31.17
2022-11-26T19:47:16.476Z,32.05
2022-11-26T19:51:20.080Z,32.63
2022-11-26T19:55:22.138Z,30.52
2022-11-26T19:59:23.929Z,32.33
2022-11-26T20:03:27.063Z,34.25
2022-11-26T20:07:28.776Z,35.92
2022-11-26T20:11:31.333Z,34.03
2022-11-26T20:15:37.354Z,37.20
2022-11-26T20:19:39.830Z,34.45
2022-11-26T20:23:41.953Z,37.65
2022-11-26T20:27:44.212Z,38.72
2022-11-26T20:31:48.082Z,38.85
2022-11-26T20:35:50.551Z,39.42
2022-11-26T20:39:52.138Z,39.00
2022-11-26T20:43:59.131Z,39.10
2022-11-26T20:48:01.367Z,41.17
2022-11-26T20:52:03.698Z,38.55
2022-11-26T20:56:06.147Z,40.20
2022-11-26T21:00:08.615Z,41.95
2022-11-26T21:04:10.286Z,38.10
2022-11-26T21:08:12.254Z,41.70
2022-11-26T21:12:14.744Z,41.80
2022-11-26T21:16:16.935Z,43.63
2022-11-26T21:20:18.703Z,44.25
2022-11-26T21:24:20.801Z,47.42
2022-11-26T21:28:22.474Z,48.35
2022-11-26T21:32:24.488Z,44.42
2022-11-26T21:36:27.522Z,45.60
2022-11-26T21:40:30.186Z,45.25
2022-11-26T21:44:32.300Z,43.72
2022-11-26T21:48:35.693Z,48.17
2022-11-26T21:52:38.029Z,43.45
2022-11-26T21:56:40.118Z,44.55
2022-11-26T22:00:43.226Z,43.92
2022-11-26T22:04:45.220Z,44.03
2022-11-26T22:08:49.987Z,46.28
2022-11-26T22:12:51.909Z,48.75
2022-11-26T22:16:53.755Z,45.38
2022-11-26T22:20:55.916Z,44.75
2022-11-26T22:24:57.522Z,43.50
2022-11-26T22:28:59.976Z,42.65
2022-11-26T22:33:03.593Z,41.03
2022-11-26T22:37:05.601Z,39.80
2022-11-26T22:41:10.471Z,40.13
2022-11-26T22:45:12.472Z,40.80
2022-11-26T22:49:16.015Z,42.28
2022-11-26T22:53:18.357Z,42.15
2022-11-26T22:57:25.150Z,45.10
2022-11-26T23:01:30.796Z,43.85
2022-11-26T23:05:36.987Z,48.42
2022-11-26T23:09:43.783Z,44.60
2022-11-26T23:13:50.085Z,44.92
2022-11-26T23:17:51.755Z,44.20
2022-11-26T23:21:53.893Z,45.95
2022-11-26T23:25:55.607Z,46.22
2022-11-26T23:29:58.372Z,45.65
2022-11-26T23:34:01.133Z,49.15
2022-11-26T23:38:02.938Z,45.85
2022-11-26T23:42:05.076Z,41.78
2022-11-26T23:46:11.522Z,44.42
2022-11-26T23:50:14.380Z,46.08
2022-11-26T23:54:16.091Z,44.25
2022-11-26T23:58:19.193Z,41.03
